createdAt,value
2023-03-29T00:00:08.311Z,32.07
2023-03-29T00:01:08.324Z,32.45
2023-03-29T00:02:08.393Z,32.00
2023-03-29T00:03:08.476Z,31.43
2023-03-29T00:04:08.397Z,30.60
2023-03-29T00:05:08.385Z,31.14
2023-03-29T00:06:08.429Z,31.40
2023-03-29T00:07:08.467Z,30.57
2023-03-29T00:08:08.478Z,30.73
2023-03-29T00:09:08.499Z,30.26
2023-03-29T00:10:08.493Z,28.89
2023-03-29T00:11:08.555Z,30.01
2023-03-29T00:12:08.475Z,29.32
2023-03-29T00:13:08.465Z,28.89
2023-03-29T00:14:08.452Z,28.68
2023-03-29T00:15:08.443Z,28.68
2023-03-29T00:16:08.427Z,27.24
2023-03-29T00:17:08.487Z,26.56
2023-03-29T00:18:08.433Z,27.83
2023-03-29T00:19:08.406Z,27.74
2023-03-29T00:20:08.384Z,29.04
2023-03-29T00:21:08.358Z,27.87
2023-03-29T00:22:08.349Z,26.76
2023-03-29T00:23:08.318Z,25.58
2023-03-29T00:24:08.319Z,27.52
2023-03-29T00:25:08.317Z,27.17
2023-03-29T00:26:08.576Z,27.38
2023-03-29T00:27:08.268Z,26.89
2023-03-29T00:28:08.243Z,25.00
2023-03-29T00:29:08.231Z,26.96
2023-03-29T00:30:08.256Z,26.91
2023-03-29T00:31:08.317Z,27.36
2023-03-29T00:32:08.237Z,25.83
2023-03-29T00:33:08.261Z,25.42
2023-03-29T00:34:08.237Z,25.00
2023-03-29T00:35:08.229Z,27.74
2023-03-29T00:36:08.274Z,26.87
2023-03-29T00:37:08.205Z,27.50
2023-03-29T00:38:08.186Z,25.26
2023-03-29T00:39:08.184Z,26.66
2023-03-29T00:40:08.166Z,26.30
2023-03-29T00:41:08.153Z,26.43
2023-03-29T00:42:08.133Z,26.51
2023-03-29T00:43:08.099Z,25.25
2023-03-29T00:44:08.089Z,25.34
2023-03-29T00:45:08.094Z,28.95
2023-03-29T00:46:08.147Z,26.65
2023-03-29T00:47:08.057Z,29.10
2023-03-29T00:48:08.121Z,27.69
2023-03-29T00:49:08.022Z,25.27
2023-03-29T00:50:07.988Z,26.00
2023-03-29T00:51:09.866Z,25.81
2023-03-29T00:52:07.941Z,26.91
2023-03-29T00:53:07.921Z,25.00
2023-03-29T00:54:07.902Z,26.49
2023-03-29T00:55:07.881Z,26.46
2023-03-29T00:56:07.861Z,26.37
2023-03-29T00:57:07.866Z,26.65
2023-03-29T00:58:07.812Z,25.79
2023-03-29T00:59:07.798Z,26.68
2023-03-29T01:00:07.772Z,25.94
2023-03-29T01:01:07.749Z,25.84
2023-03-29T01:02:07.833Z,26.12
2023-03-29T01:03:07.862Z,26.02
2023-03-29T01:04:07.789Z,26.50
2023-03-29T01:05:07.704Z,26.80
2023-03-29T01:06:07.701Z,25.16
2023-03-29T01:07:07.739Z,26.73
2023-03-29T01:08:07.667Z,25.79
2023-03-29T01:09:07.641Z,25.47
2023-03-29T01:10:07.616Z,27.57
2023-03-29T01:11:07.605Z,26.66
2023-03-29T01:12:07.591Z,25.86
2023-03-29T01:13:07.561Z,27.58
2023-03-29T01:14:07.691Z,26.53
2023-03-29T01:15:07.528Z,25.59
2023-03-29T01:16:07.544Z,28.01
2023-03-29T01:17:07.501Z,26.08
2023-03-29T01:18:07.562Z,25.97
2023-03-29T01:19:07.452Z,25.16
2023-03-29T01:20:07.430Z,25.00
2023-03-29T01:21:07.434Z,26.26
2023-03-29T01:22:07.390Z,26.39
2023-03-29T01:23:07.407Z,29.01
2023-03-29T01:24:07.409Z,27.39
2023-03-29T01:25:07.379Z,26.12
2023-03-29T01:26:07.344Z,25.00
2023-03-29T01:27:07.336Z,25.71
2023-03-29T01:28:07.319Z,26.20
2023-03-29T01:29:07.295Z,25.08
2023-03-29T01:30:07.274Z,25.90
2023-03-29T01:31:07.261Z,29.66
2023-03-29T01:32:07.305Z,28.25
2023-03-29T01:33:07.268Z,28.83
2023-03-29T01:34:07.209Z,27.84
2023-03-29T01:35:07.830Z,26.69
2023-03-29T01:36:07.195Z,27.09
2023-03-29T01:37:07.154Z,27.28
2023-03-29T01:38:07.131Z,30.41
2023-03-29T01:39:07.197Z,25.17
2023-03-29T01:40:07.104Z,27.91
2023-03-29T01:41:07.109Z,25.82
2023-03-29T01:42:07.077Z,25.68
2023-03-29T01:43:07.061Z,27.77
2023-03-29T01:44:07.054Z,25.78
2023-03-29T01:45:07.023Z,26.72
2023-03-29T01:46:07.053Z,26.92
2023-03-29T01:47:07.004Z,27.68
2023-03-29T01:48:07.040Z,25.93
2023-03-29T01:49:06.973Z,25.82
2023-03-29T01:50:06.987Z,26.26
2023-03-29T01:51:06.944Z,26.26
2023-03-29T01:52:06.939Z,28.59
2023-03-29T01:53:06.912Z,26.74
2023-03-29T01:54:06.888Z,26.44
2023-03-29T01:55:06.877Z,26.71
2023-03-29T01:56:06.855Z,26.85
2023-03-29T01:57:06.892Z,28.20
2023-03-29T01:58:06.835Z,27.16
2023-03-29T01:59:06.807Z,26.34
2023-03-29T02:00:06.792Z,27.31
2023-03-29T02:01:06.786Z,25.96
2023-03-29T02:02:06.777Z,26.27
2023-03-29T02:03:06.937Z,26.72
2023-03-29T02:04:06.732Z,28.24
2023-03-29T02:05:06.713Z,26.71
2023-03-29T02:06:06.710Z,26.28
2023-03-29T02:07:06.687Z,27.30
2023-03-29T02:08:06.670Z,25.96
2023-03-29T02:09:06.666Z,25.43
2023-03-29T02:10:06.675Z,27.51
2023-03-29T02:11:06.654Z,26.64
2023-03-29T02:12:06.645Z,25.80
2023-03-29T02:13:06.626Z,26.64
2023-03-29T02:14:06.615Z,27.84
2023-03-29T02:15:06.604Z,26.46
2023-03-29T02:16:06.648Z,26.25
2023-03-29T02:17:06.582Z,27.78
2023-03-29T02:18:06.725Z,25.35
2023-03-29T02:19:06.557Z,25.00
2023-03-29T02:20:06.537Z,28.25
2023-03-29T02:21:06.510Z,27.02
2023-03-29T02:22:06.497Z,27.50
2023-03-29T02:23:06.480Z,26.46
2023-03-29T02:24:06.490Z,28.25
2023-03-29T02:25:06.495Z,26.30
2023-03-29T02:26:06.424Z,26.28
2023-03-29T02:27:06.472Z,25.87
2023-03-29T02:28:06.395Z,26.01
2023-03-29T02:29:06.386Z,25.28
2023-03-29T02:30:06.373Z,26.51
2023-03-29T02:31:06.374Z,27.15
2023-03-29T02:32:06.351Z,26.94
2023-03-29T02:33:06.365Z,27.29
2023-03-29T02:34:06.335Z,28.60
2023-03-29T02:35:06.321Z,28.16
2023-03-29T02:36:06.380Z,25.26
2023-03-29T02:37:06.291Z,27.34
2023-03-29T02:38:06.284Z,28.08
2023-03-29T02:39:06.287Z,26.61
2023-03-29T02:40:06.274Z,26.37
2023-03-29T02:41:06.260Z,26.36
2023-03-29T02:42:06.283Z,28.32
2023-03-29T02:43:06.238Z,26.04
2023-03-29T02:44:06.225Z,26.41
2023-03-29T02:45:06.209Z,26.86
2023-03-29T02:46:06.205Z,25.00
2023-03-29T02:47:06.198Z,25.71
2023-03-29T02:49:06.153Z,27.02
2023-03-29T02:50:06.149Z,27.82
2023-03-29T02:51:06.141Z,25.28
2023-03-29T02:52:06.133Z,27.65
2023-03-29T02:53:06.124Z,27.01
2023-03-29T02:54:06.110Z,28.00
2023-03-29T02:55:06.105Z,27.21
2023-03-29T02:56:06.088Z,27.14
2023-03-29T02:57:06.096Z,26.69
2023-03-29T02:58:06.073Z,26.78
2023-03-29T02:59:06.069Z,25.58
2023-03-29T03:00:06.062Z,25.00
2023-03-29T03:01:06.049Z,25.33
2023-03-29T03:02:06.069Z,26.67
2023-03-29T03:03:06.208Z,25.50
2023-03-29T03:04:06.106Z,28.04
2023-03-29T03:05:06.025Z,27.54
2023-03-29T03:06:06.011Z,27.63
2023-03-29T03:07:06.008Z,25.77
2023-03-29T03:08:05.985Z,25.44
2023-03-29T03:09:05.985Z,26.83
2023-03-29T03:10:05.983Z,26.15
2023-03-29T03:11:05.960Z,26.40
2023-03-29T03:12:05.956Z,27.74
2023-03-29T03:13:05.932Z,26.70
2023-03-29T03:14:05.942Z,26.58
2023-03-29T03:15:05.962Z,28.71
2023-03-29T03:16:05.964Z,28.46
2023-03-29T03:17:05.918Z,27.89
2023-03-29T03:18:05.981Z,26.75
2023-03-29T03:19:05.924Z,27.74
2023-03-29T03:20:05.877Z,26.67
2023-03-29T03:21:05.866Z,28.66
2023-03-29T03:22:05.895Z,26.22
2023-03-29T03:23:05.855Z,27.47
2023-03-29T03:24:05.844Z,28.13
2023-03-29T03:25:05.841Z,26.01
2023-03-29T03:26:05.828Z,26.72
2023-03-29T03:27:05.822Z,26.30
2023-03-29T03:28:05.831Z,26.35
2023-03-29T03:29:05.807Z,27.42
2023-03-29T03:30:05.793Z,26.58
2023-03-29T03:31:05.777Z,29.13
2023-03-29T03:32:05.855Z,29.48
2023-03-29T03:33:05.794Z,25.43
2023-03-29T03:34:05.737Z,26.60
2023-03-29T03:35:05.735Z,27.07
2023-03-29T03:36:05.798Z,26.76
2023-03-29T03:37:05.815Z,26.97
2023-03-29T03:38:05.776Z,26.85
2023-03-29T03:39:05.819Z,28.36
2023-03-29T03:40:05.772Z,27.89
2023-03-29T03:41:06.168Z,25.66
2023-03-29T03:42:08.237Z,28.37
2023-03-29T03:43:05.758Z,25.38
2023-03-29T03:44:05.741Z,27.02
2023-03-29T03:45:05.724Z,27.47
2023-03-29T03:46:05.795Z,27.93
2023-03-29T03:47:05.709Z,26.38
2023-03-29T03:48:05.730Z,27.23
2023-03-29T03:49:05.759Z,28.46
2023-03-29T03:50:05.677Z,26.46
2023-03-29T03:51:05.673Z,26.69
2023-03-29T03:52:05.671Z,28.15
2023-03-29T03:53:05.661Z,25.00
2023-03-29T03:54:05.653Z,28.36
2023-03-29T03:55:05.645Z,27.59
2023-03-29T03:56:05.612Z,26.75
2023-03-29T03:57:05.612Z,26.89
2023-03-29T03:58:05.633Z,27.53
2023-03-29T03:59:05.578Z,26.99
2023-03-29T04:00:05.544Z,26.49
2023-03-29T04:01:05.530Z,26.75
2023-03-29T04:02:05.545Z,26.18
2023-03-29T04:03:05.634Z,26.34
2023-03-29T04:04:05.511Z,25.26
2023-03-29T04:05:05.463Z,28.10
2023-03-29T04:06:06.373Z,26.92
2023-03-29T04:07:05.432Z,28.46
2023-03-29T04:08:05.429Z,25.25
2023-03-29T04:09:05.416Z,27.54
2023-03-29T04:10:05.394Z,26.08
2023-03-29T04:11:05.398Z,27.40
2023-03-29T04:12:05.380Z,27.40
2023-03-29T04:13:05.368Z,27.38
2023-03-29T04:14:05.371Z,25.93
2023-03-29T04:15:05.340Z,28.02
2023-03-29T04:16:05.347Z,26.88
2023-03-29T04:17:05.318Z,26.78
2023-03-29T04:18:05.418Z,25.75
2023-03-29T04:19:05.288Z,26.41
2023-03-29T04:20:05.279Z,27.57
2023-03-29T04:21:05.272Z,27.35
2023-03-29T04:22:05.253Z,27.01
2023-03-29T04:23:05.239Z,26.57
2023-03-29T04:24:05.218Z,27.02
2023-03-29T04:25:05.224Z,26.19
2023-03-29T04:26:05.186Z,27.30
2023-03-29T04:27:05.180Z,25.00
2023-03-29T04:28:05.157Z,26.88
2023-03-29T04:29:05.134Z,25.72
2023-03-29T04:30:05.111Z,26.98
2023-03-29T04:31:05.394Z,24.80
2023-03-29T04:32:05.071Z,27.72
2023-03-29T04:33:05.107Z,28.99
2023-03-29T04:34:05.047Z,25.00
2023-03-29T04:35:05.038Z,28.32
2023-03-29T04:36:05.052Z,26.40
2023-03-29T04:37:04.996Z,26.11
2023-03-29T04:38:04.982Z,25.56
2023-03-29T04:39:04.971Z,27.84
2023-03-29T04:40:04.941Z,27.27
2023-03-29T04:41:05.037Z,27.53
2023-03-29T04:42:04.910Z,26.22
2023-03-29T04:43:04.897Z,29.17
2023-03-29T04:44:04.879Z,28.43
2023-03-29T04:45:05.044Z,27.71
2023-03-29T04:46:04.874Z,26.78
2023-03-29T04:47:04.831Z,25.75
2023-03-29T04:48:04.869Z,25.34
2023-03-29T04:49:04.795Z,28.20
2023-03-29T04:50:04.788Z,27.46
2023-03-29T04:51:04.770Z,26.97
2023-03-29T04:52:04.762Z,27.25
2023-03-29T04:53:04.733Z,29.50
2023-03-29T04:54:04.716Z,27.65
2023-03-29T04:55:04.699Z,27.20
2023-03-29T04:56:04.684Z,27.28
2023-03-29T04:57:04.686Z,27.96
2023-03-29T04:58:04.657Z,28.47
2023-03-29T04:59:04.642Z,28.25
2023-03-29T05:00:04.625Z,25.90
2023-03-29T05:01:04.776Z,28.17
2023-03-29T05:02:04.661Z,27.65
2023-03-29T05:03:04.671Z,28.45
2023-03-29T05:04:04.597Z,27.38
2023-03-29T05:05:04.562Z,26.31
2023-03-29T05:06:04.541Z,26.06
2023-03-29T05:07:04.524Z,28.20
2023-03-29T05:08:04.496Z,28.20
2023-03-29T05:09:04.488Z,25.66
2023-03-29T05:10:04.479Z,25.44
2023-03-29T05:11:04.600Z,27.24
2023-03-29T05:12:04.510Z,27.25
2023-03-29T05:13:04.434Z,29.49
2023-03-29T05:14:04.422Z,26.02
2023-03-29T05:15:04.439Z,28.44
2023-03-29T05:16:04.445Z,29.08
2023-03-29T05:17:04.351Z,27.07
2023-03-29T05:18:04.408Z,28.05
2023-03-29T05:19:04.332Z,26.95
2023-03-29T05:20:04.317Z,28.31
2023-03-29T05:21:04.692Z,27.00
2023-03-29T05:22:04.277Z,27.27
2023-03-29T05:23:04.277Z,26.41
2023-03-29T05:24:05.920Z,30.06
2023-03-29T05:25:04.229Z,29.78
2023-03-29T05:26:04.227Z,30.44
2023-03-29T05:27:04.196Z,31.04
2023-03-29T05:28:04.172Z,35.98
2023-03-29T05:29:04.165Z,37.56
2023-03-29T05:30:04.137Z,42.38
2023-03-29T05:31:04.607Z,48.53
2023-03-29T05:32:04.118Z,56.32
2023-03-29T05:33:04.110Z,53.64
2023-03-29T05:34:04.070Z,58.52
2023-03-29T05:35:04.056Z,62.96
2023-03-29T05:36:04.052Z,69.84
2023-03-29T05:37:04.020Z,69.83
2023-03-29T05:38:04.069Z,75.93
2023-03-29T05:39:04.096Z,80.88
2023-03-29T05:40:05.569Z,84.91
2023-03-29T05:41:04.207Z,85.11
2023-03-29T05:42:04.833Z,85.55
2023-03-29T05:43:05.918Z,87.65
2023-03-29T05:44:04.047Z,92.39
2023-03-29T05:45:04.026Z,103.46
2023-03-29T05:46:04.057Z,107.81
2023-03-29T05:47:03.983Z,112.11
2023-03-29T05:48:04.071Z,116.63
2023-03-29T05:49:03.918Z,118.25
2023-03-29T05:50:03.896Z,122.42
2023-03-29T05:51:03.962Z,128.96
2023-03-29T05:52:03.852Z,133.99
2023-03-29T05:53:03.862Z,137.65
2023-03-29T05:54:03.781Z,140.44
2023-03-29T05:55:03.746Z,143.05
2023-03-29T05:56:03.728Z,147.28
2023-03-29T05:57:03.752Z,155.74
2023-03-29T05:58:03.671Z,155.32
2023-03-29T05:59:03.677Z,161.51
2023-03-29T06:00:03.633Z,165.68
2023-03-29T06:01:04.578Z,169.17
2023-03-29T06:02:03.571Z,173.60
2023-03-29T06:03:13.688Z,179.09
2023-03-29T06:04:04.632Z,179.24
2023-03-29T06:05:03.519Z,180.02
2023-03-29T06:06:03.422Z,183.24
2023-03-29T06:07:03.396Z,187.05
2023-03-29T06:08:03.359Z,194.15
2023-03-29T06:09:03.322Z,196.94
2023-03-29T06:10:03.290Z,202.14
2023-03-29T06:11:05.109Z,203.22
2023-03-29T06:12:03.225Z,207.33
2023-03-29T06:13:03.181Z,208.81
2023-03-29T06:14:03.157Z,210.45
2023-03-29T06:15:03.148Z,215.38
2023-03-29T06:16:04.429Z,211.89
2023-03-29T06:17:03.067Z,220.54
2023-03-29T06:18:03.062Z,225.13
2023-03-29T06:19:02.989Z,225.02
2023-03-29T06:20:02.944Z,230.45
2023-03-29T06:21:03.867Z,230.78
2023-03-29T06:22:02.895Z,231.87
2023-03-29T06:23:02.873Z,233.35
2023-03-29T06:24:02.825Z,131.51
2023-03-29T06:25:02.796Z,34.88
2023-03-29T06:26:02.768Z,35.76
2023-03-29T06:27:02.758Z,51.75
2023-03-29T06:28:02.753Z,56.81
2023-03-29T06:29:02.725Z,60.55
2023-03-29T06:30:03.711Z,60.81
2023-03-29T06:31:03.808Z,62.23
2023-03-29T06:32:02.655Z,67.37
2023-03-29T06:33:02.656Z,74.72
2023-03-29T06:34:02.603Z,82.37
2023-03-29T06:35:02.589Z,86.58
2023-03-29T06:36:02.587Z,85.21
2023-03-29T06:37:02.502Z,91.37
2023-03-29T06:38:02.474Z,98.30
2023-03-29T06:39:02.495Z,105.04
2023-03-29T06:40:02.416Z,111.51
2023-03-29T06:41:02.635Z,114.43
2023-03-29T06:42:10.048Z,122.16
2023-03-29T06:43:03.350Z,122.44
2023-03-29T06:44:02.303Z,123.58
2023-03-29T06:45:02.276Z,126.02
2023-03-29T06:46:02.260Z,131.78
2023-03-29T06:47:02.201Z,142.21
2023-03-29T06:48:02.231Z,144.99
2023-03-29T06:49:02.213Z,149.61
2023-03-29T06:50:02.101Z,148.65
2023-03-29T06:51:02.288Z,148.21
2023-03-29T06:52:02.057Z,158.18
2023-03-29T06:53:02.005Z,159.77
2023-03-29T06:54:01.961Z,164.18
2023-03-29T06:55:01.929Z,164.54
2023-03-29T06:56:01.903Z,165.65
2023-03-29T06:57:01.916Z,171.81
2023-03-29T06:58:02.718Z,178.03
2023-03-29T06:59:01.775Z,180.53
2023-03-29T07:00:01.763Z,178.71
2023-03-29T07:01:01.848Z,178.25
2023-03-29T07:02:01.709Z,191.10
2023-03-29T07:03:01.713Z,196.33
2023-03-29T07:04:01.639Z,197.95
2023-03-29T07:05:01.557Z,203.00
2023-03-29T07:06:01.506Z,205.51
2023-03-29T07:07:01.733Z,210.73
2023-03-29T07:08:01.537Z,213.16
2023-03-29T07:09:01.814Z,213.85
2023-03-29T07:10:01.583Z,215.39
2023-03-29T07:11:01.768Z,223.98
2023-03-29T07:12:01.642Z,224.90
2023-03-29T07:13:01.672Z,226.57
2023-03-29T07:14:01.701Z,229.78
2023-03-29T07:15:01.706Z,239.84
2023-03-29T07:16:01.780Z,235.94
2023-03-29T07:17:01.754Z,234.37
2023-03-29T07:18:01.785Z,237.04
2023-03-29T07:19:01.809Z,235.25
2023-03-29T07:20:01.860Z,237.88
2023-03-29T07:21:02.086Z,242.52
2023-03-29T07:22:01.922Z,243.40
2023-03-29T07:23:01.958Z,237.19
2023-03-29T07:24:01.971Z,240.81
2023-03-29T07:25:01.962Z,239.37
2023-03-29T07:26:01.950Z,235.85
2023-03-29T07:27:04.478Z,242.44
2023-03-29T07:28:01.903Z,247.71
2023-03-29T07:29:01.877Z,242.52
2023-03-29T07:30:01.843Z,244.58
2023-03-29T07:31:02.194Z,246.31
2023-03-29T07:32:01.784Z,247.97
2023-03-29T07:33:01.877Z,244.57
2023-03-29T07:34:01.704Z,244.53
2023-03-29T07:35:01.675Z,242.97
2023-03-29T07:36:01.665Z,243.45
2023-03-29T07:37:01.615Z,243.41
2023-03-29T07:38:01.583Z,242.68
2023-03-29T07:39:01.565Z,241.77
2023-03-29T07:40:01.519Z,240.38
2023-03-29T07:41:01.681Z,240.23
2023-03-29T07:42:01.472Z,239.20
2023-03-29T07:43:01.442Z,240.31
2023-03-29T07:44:03.313Z,241.53
2023-03-29T07:45:01.379Z,241.58
2023-03-29T07:46:01.363Z,240.13
2023-03-29T07:47:01.306Z,236.06
2023-03-29T07:48:01.345Z,236.03
2023-03-29T07:49:01.251Z,235.22
2023-03-29T07:50:01.243Z,234.57
2023-03-29T07:51:01.620Z,233.55
2023-03-29T07:52:01.154Z,235.12
2023-03-29T07:53:01.139Z,232.58
2023-03-29T07:54:01.089Z,231.03
2023-03-29T07:55:01.071Z,230.91
2023-03-29T07:56:01.034Z,231.89
2023-03-29T07:57:01.038Z,229.36
2023-03-29T07:58:00.977Z,229.60
2023-03-29T07:59:00.946Z,227.65
2023-03-29T08:00:01.112Z,227.37
2023-03-29T08:01:01.139Z,227.40
2023-03-29T08:02:00.854Z,225.84
2023-03-29T08:03:00.860Z,225.41
2023-03-29T08:04:00.854Z,223.17
2023-03-29T08:05:00.888Z,223.07
2023-03-29T08:06:00.754Z,221.47
2023-03-29T08:07:00.730Z,221.37
2023-03-29T08:08:00.709Z,221.20
2023-03-29T08:09:00.697Z,217.73
2023-03-29T08:10:00.638Z,217.22
2023-03-29T08:11:00.888Z,215.00
2023-03-29T08:12:00.611Z,216.09
2023-03-29T08:13:00.576Z,216.71
2023-03-29T08:14:00.536Z,214.47
2023-03-29T08:15:00.514Z,214.44
2023-03-29T08:16:00.472Z,211.91
2023-03-29T08:17:00.481Z,209.68
2023-03-29T08:18:00.487Z,209.10
2023-03-29T08:19:00.381Z,209.73
2023-03-29T08:20:00.349Z,207.97
2023-03-29T08:21:00.505Z,206.71
2023-03-29T08:22:00.294Z,206.07
2023-03-29T08:23:00.305Z,204.81
2023-03-29T08:24:00.340Z,203.03
2023-03-29T08:25:00.357Z,204.10
2023-03-29T08:26:00.389Z,203.40
2023-03-29T08:27:00.419Z,203.31
2023-03-29T08:28:00.445Z,201.16
2023-03-29T08:29:00.471Z,201.16
2023-03-29T08:30:00.518Z,197.48
2023-03-29T08:31:00.835Z,198.57
2023-03-29T08:32:00.578Z,197.31
2023-03-29T08:33:00.632Z,198.27
2023-03-29T08:34:00.645Z,196.60
2023-03-29T08:35:00.705Z,195.34
2023-03-29T08:36:00.775Z,195.58
2023-03-29T08:37:00.743Z,193.76
2023-03-29T08:38:00.778Z,193.06
2023-03-29T08:39:00.819Z,192.88
2023-03-29T08:40:00.854Z,192.87
2023-03-29T08:41:01.166Z,192.09
2023-03-29T08:42:00.934Z,190.41
2023-03-29T08:43:00.959Z,189.61
2023-03-29T08:44:00.999Z,188.83
2023-03-29T08:45:01.292Z,189.52
2023-03-29T08:46:01.090Z,189.33
2023-03-29T08:47:01.217Z,187.75
2023-03-29T08:48:01.217Z,188.27
2023-03-29T08:49:01.184Z,187.39
2023-03-29T08:50:01.220Z,182.14
2023-03-29T08:51:01.414Z,184.27
2023-03-29T08:52:01.353Z,182.97
2023-03-29T08:53:01.320Z,183.77
2023-03-29T08:54:01.338Z,180.82
2023-03-29T08:55:01.401Z,178.44
2023-03-29T08:56:01.399Z,179.78
2023-03-29T08:57:01.475Z,177.79
2023-03-29T08:58:01.469Z,178.61
2023-03-29T08:59:01.531Z,178.80
2023-03-29T09:00:02.474Z,178.91
2023-03-29T09:01:01.806Z,177.95
2023-03-29T09:02:01.948Z,175.88
2023-03-29T09:03:01.466Z,176.32
2023-03-29T09:04:01.422Z,174.36
2023-03-29T09:05:01.330Z,174.27
2023-03-29T09:06:01.305Z,172.71
2023-03-29T09:07:01.277Z,172.59
2023-03-29T09:08:01.250Z,171.38
2023-03-29T09:09:01.264Z,170.31
2023-03-29T09:10:01.363Z,169.52
2023-03-29T09:11:01.595Z,169.49
2023-03-29T09:12:01.365Z,167.80
2023-03-29T09:13:01.453Z,166.22
2023-03-29T09:14:01.446Z,166.57
2023-03-29T09:15:01.476Z,167.16
2023-03-29T09:16:02.514Z,166.66
2023-03-29T09:17:01.548Z,164.30
2023-03-29T09:18:01.571Z,163.92
2023-03-29T09:19:01.607Z,162.93
2023-03-29T09:20:01.644Z,163.42
2023-03-29T09:21:01.852Z,161.68
2023-03-29T09:22:01.743Z,159.60
2023-03-29T09:23:01.758Z,160.69
2023-03-29T09:24:01.799Z,161.02
2023-03-29T09:25:01.829Z,156.28
2023-03-29T09:26:01.870Z,157.28
2023-03-29T09:27:01.904Z,158.43
2023-03-29T09:28:01.966Z,155.89
2023-03-29T09:29:01.982Z,157.50
2023-03-29T09:30:02.012Z,155.24
2023-03-29T09:31:02.249Z,155.03
2023-03-29T09:32:02.284Z,156.30
2023-03-29T09:33:02.149Z,152.49
2023-03-29T09:34:02.165Z,155.15
2023-03-29T09:35:02.200Z,153.83
2023-03-29T09:36:02.231Z,151.66
2023-03-29T09:37:02.237Z,153.82
2023-03-29T09:38:02.245Z,153.80
2023-03-29T09:39:02.265Z,153.95
2023-03-29T09:40:05.102Z,154.10
2023-03-29T09:41:02.452Z,154.19
2023-03-29T09:42:02.190Z,154.11
2023-03-29T09:43:02.159Z,153.21
2023-03-29T09:44:02.137Z,152.37
2023-03-29T09:45:02.166Z,151.44
2023-03-29T09:46:02.245Z,151.21
2023-03-29T09:47:02.082Z,152.83
2023-03-29T09:48:02.083Z,150.13
2023-03-29T09:49:02.004Z,149.41
2023-03-29T09:50:01.981Z,148.88
2023-03-29T09:51:02.164Z,147.93
2023-03-29T09:52:01.941Z,149.37
2023-03-29T09:53:01.912Z,147.07
2023-03-29T09:54:01.884Z,147.57
2023-03-29T09:55:01.953Z,147.60
2023-03-29T09:56:01.849Z,146.75
2023-03-29T09:57:01.856Z,145.48
2023-03-29T09:58:01.781Z,145.66
2023-03-29T09:59:01.755Z,146.23
2023-03-29T10:00:01.747Z,142.56
2023-03-29T10:01:02.056Z,144.17
2023-03-29T10:02:01.672Z,144.46
2023-03-29T10:03:01.752Z,143.04
2023-03-29T10:04:01.649Z,143.83
2023-03-29T10:05:01.712Z,143.86
2023-03-29T10:06:01.596Z,142.61
2023-03-29T10:07:01.543Z,143.53
2023-03-29T10:08:01.556Z,141.62
2023-03-29T10:09:01.508Z,142.37
2023-03-29T10:10:01.473Z,141.28
2023-03-29T10:11:01.642Z,141.69
2023-03-29T10:12:01.423Z,141.71
2023-03-29T10:13:01.416Z,142.29
2023-03-29T10:14:01.448Z,140.30
2023-03-29T10:15:01.480Z,140.82
2023-03-29T10:16:01.568Z,140.17
2023-03-29T10:17:01.586Z,139.42
2023-03-29T10:18:01.594Z,138.66
2023-03-29T10:19:01.564Z,137.96
2023-03-29T10:20:03.947Z,139.01
2023-03-29T10:21:02.005Z,139.10
2023-03-29T10:22:01.556Z,138.97
2023-03-29T10:23:01.510Z,137.25
2023-03-29T10:24:01.508Z,135.76
2023-03-29T10:25:01.456Z,137.35
2023-03-29T10:26:01.420Z,135.77
2023-03-29T10:27:01.383Z,136.69
2023-03-29T10:28:01.353Z,135.15
2023-03-29T10:29:01.324Z,135.42
2023-03-29T10:30:01.299Z,135.33
2023-03-29T10:31:01.499Z,131.88
2023-03-29T10:32:01.278Z,133.67
2023-03-29T10:33:01.217Z,133.34
2023-03-29T10:34:01.176Z,131.78
2023-03-29T10:35:01.153Z,133.27
2023-03-29T10:36:01.189Z,132.14
2023-03-29T10:37:01.208Z,131.12
2023-03-29T10:38:01.050Z,129.70
2023-03-29T10:39:02.778Z,129.91
2023-03-29T10:40:00.987Z,130.03
2023-03-29T10:41:01.027Z,130.26
2023-03-29T10:42:00.948Z,130.05
2023-03-29T10:43:00.939Z,129.31
2023-03-29T10:44:00.915Z,129.17
2023-03-29T10:45:01.133Z,128.20
2023-03-29T10:46:00.844Z,126.65
2023-03-29T10:47:00.770Z,125.44
2023-03-29T10:48:00.779Z,123.64
2023-03-29T10:49:00.699Z,124.33
2023-03-29T10:50:01.482Z,123.15
2023-03-29T10:51:00.836Z,119.81
2023-03-29T10:52:00.602Z,119.87
2023-03-29T10:53:00.578Z,122.09
2023-03-29T10:54:00.558Z,121.50
2023-03-29T10:55:00.525Z,118.28
2023-03-29T10:56:00.491Z,122.17
2023-03-29T10:57:00.529Z,119.88
2023-03-29T10:58:00.423Z,120.77
2023-03-29T10:59:00.401Z,118.45
2023-03-29T11:00:00.394Z,118.93
2023-03-29T11:01:00.512Z,119.25
2023-03-29T11:02:00.384Z,120.37
2023-03-29T11:03:00.423Z,118.45
2023-03-29T11:04:00.441Z,118.60
2023-03-29T11:05:00.296Z,117.86
2023-03-29T11:06:00.217Z,118.84
2023-03-29T11:07:00.171Z,118.02
2023-03-29T11:08:00.148Z,118.01
2023-03-29T11:09:00.114Z,117.10
2023-03-29T11:10:00.122Z,117.63
2023-03-29T11:11:00.229Z,118.67
2023-03-29T11:12:14.391Z,116.02
2023-03-29T11:13:01.005Z,116.21
2023-03-29T11:14:00.128Z,116.31
2023-03-29T11:14:59.929Z,116.66
2023-03-29T11:15:59.926Z,115.28
2023-03-29T11:16:59.868Z,115.04
2023-03-29T11:17:59.886Z,117.11
2023-03-29T11:18:59.813Z,114.81
2023-03-29T11:20:00.238Z,115.72
2023-03-29T11:20:59.829Z,116.16
2023-03-29T11:21:59.709Z,114.57
2023-03-29T11:22:59.680Z,113.70
2023-03-29T11:23:59.653Z,113.92
2023-03-29T11:24:59.675Z,113.60
2023-03-29T11:25:59.717Z,115.22
2023-03-29T11:26:59.761Z,112.47
2023-03-29T11:27:59.770Z,113.60
2023-03-29T11:28:59.781Z,111.65
2023-03-29T11:29:59.784Z,111.27
2023-03-29T11:30:59.886Z,111.69
2023-03-29T11:31:59.823Z,110.69
2023-03-29T11:32:59.901Z,110.85
2023-03-29T11:33:59.763Z,110.81
2023-03-29T11:34:59.778Z,111.67
2023-03-29T11:35:59.829Z,109.71
2023-03-29T11:36:59.826Z,111.56
2023-03-29T11:37:59.849Z,111.67
2023-03-29T11:38:59.865Z,109.85
2023-03-29T11:39:59.894Z,108.04
2023-03-29T11:40:59.908Z,110.63
2023-03-29T11:41:59.922Z,110.49
2023-03-29T11:42:59.953Z,110.07
2023-03-29T11:43:59.990Z,110.48
2023-03-29T11:45:00.049Z,109.23
2023-03-29T11:46:00.097Z,107.06
2023-03-29T11:47:00.177Z,109.10
2023-03-29T11:48:00.143Z,108.17
2023-03-29T11:49:00.134Z,108.82
2023-03-29T11:50:00.150Z,106.22
2023-03-29T11:51:00.256Z,107.57
2023-03-29T11:52:00.118Z,107.33
2023-03-29T11:53:00.067Z,106.68
2023-03-29T11:54:00.069Z,105.82
2023-03-29T11:55:00.111Z,106.73
2023-03-29T11:56:00.083Z,101.48
2023-03-29T11:57:00.156Z,103.34
2023-03-29T11:58:00.029Z,103.34
2023-03-29T11:59:00.002Z,103.18
2023-03-29T12:00:00.028Z,102.95
2023-03-29T12:01:00.293Z,103.24
2023-03-29T12:01:59.998Z,100.29
2023-03-29T12:03:00.047Z,101.51
2023-03-29T12:04:00.079Z,99.36
2023-03-29T12:04:59.911Z,100.91
2023-03-29T12:05:59.911Z,98.39
2023-03-29T12:06:59.903Z,98.11
2023-03-29T12:07:59.898Z,97.93
2023-03-29T12:08:59.858Z,95.83
2023-03-29T12:09:59.874Z,94.83
2023-03-29T12:10:59.873Z,94.04
2023-03-29T12:11:59.812Z,93.39
2023-03-29T12:12:59.795Z,92.35
2023-03-29T12:13:59.779Z,93.19
2023-03-29T12:14:59.741Z,90.84
2023-03-29T12:15:59.721Z,90.56
2023-03-29T12:16:59.738Z,92.81
2023-03-29T12:17:59.706Z,90.08
2023-03-29T12:18:59.664Z,89.63
2023-03-29T12:19:59.640Z,90.45
2023-03-29T12:20:59.704Z,88.40
2023-03-29T12:21:59.679Z,87.87
2023-03-29T12:22:59.594Z,86.81
2023-03-29T12:23:59.582Z,85.26
2023-03-29T12:24:59.528Z,86.19
2023-03-29T12:25:59.513Z,83.56
2023-03-29T12:26:59.492Z,84.86
2023-03-29T12:27:59.474Z,83.94
2023-03-29T12:28:59.449Z,83.60
2023-03-29T12:29:59.426Z,81.84
2023-03-29T12:30:59.408Z,81.39
2023-03-29T12:31:59.411Z,81.14
2023-03-29T12:32:59.387Z,81.40
2023-03-29T12:33:59.349Z,80.56
2023-03-29T12:34:59.329Z,80.98
2023-03-29T12:35:59.372Z,82.23
2023-03-29T12:36:59.283Z,80.20
2023-03-29T12:37:59.282Z,79.65
2023-03-29T12:38:59.242Z,80.74
2023-03-29T12:39:59.240Z,81.83
2023-03-29T12:40:59.264Z,78.92